sensor_id;sensor_type;location;lat;lon;timestamp;P1;durP1;ratioP1;P2;durP2;ratioP2
9500;SDS011;4788;52.438;9.846;2022-12-29T00:01:00;0.40;;;0.40;;
9500;SDS011;4788;52.438;9.846;2022-12-29T00:03:26;0.40;;;0.40;;
9500;SDS011;4788;52.438;9.846;2022-12-29T00:05:56;0.30;;;0.30;;
9500;SDS011;4788;52.438;9.846;2022-12-29T00:08:22;0.40;;;0.40;;
9500;SDS011;4788;52.438;9.846;2022-12-29T00:11:04;0.40;;;0.40;;
9500;SDS011;4788;52.438;9.846;2022-12-29T00:13:30;0.30;;;0.30;;
9500;SDS011;4788;52.438;9.846;2022-12-29T00:16:14;0.50;;;0.50;;
9500;SDS011;4788;52.438;9.846;2022-12-29T00:18:40;0.40;;;0.40;;
9500;SDS011;4788;52.438;9.846;2022-12-29T00:21:07;0.30;;;0.30;;
9500;SDS011;4788;52.438;9.846;2022-12-29T00:23:52;0.40;;;0.40;;
9500;SDS011;4788;52.438;9.846;2022-12-29T00:26:36;0.33;;;0.33;;
9500;SDS011;4788;52.438;9.846;2022-12-29T00:29:21;0.40;;;0.40;;
9500;SDS011;4788;52.438;9.846;2022-12-29T00:32:06;0.50;;;0.50;;
9500;SDS011;4788;52.438;9.846;2022-12-29T00:34:52;0.40;;;0.40;;
9500;SDS011;4788;52.438;9.846;2022-12-29T00:37:33;0.50;;;0.50;;
9500;SDS011;4788;52.438;9.846;2022-12-29T00:40:18;0.40;;;0.40;;
9500;SDS011;4788;52.438;9.846;2022-12-29T00:43:02;0.37;;;0.37;;
9500;SDS011;4788;52.438;9.846;2022-12-29T00:45:47;0.30;;;0.30;;
9500;SDS011;4788;52.438;9.846;2022-12-29T00:48:12;0.40;;;0.40;;
9500;SDS011;4788;52.438;9.846;2022-12-29T00:50:38;0.40;;;0.40;;
9500;SDS011;4788;52.438;9.846;2022-12-29T00:53:04;0.40;;;0.40;;
9500;SDS011;4788;52.438;9.846;2022-12-29T00:55:30;0.40;;;0.40;;
9500;SDS011;4788;52.438;9.846;2022-12-29T00:57:56;0.40;;;0.40;;
9500;SDS011;4788;52.438;9.846;2022-12-29T01:00:23;0.30;;;0.30;;
9500;SDS011;4788;52.438;9.846;2022-12-29T01:02:49;0.40;;;0.40;;
9500;SDS011;4788;52.438;9.846;2022-12-29T01:05:15;0.40;;;0.40;;
9500;SDS011;4788;52.438;9.846;2022-12-29T01:07:41;0.40;;;0.40;;
9500;SDS011;4788;52.438;9.846;2022-12-29T01:10:07;0.40;;;0.40;;
9500;SDS011;4788;52.438;9.846;2022-12-29T01:12:36;0.40;;;0.40;;
9500;SDS011;4788;52.438;9.846;2022-12-29T01:15:05;0.30;;;0.30;;
9500;SDS011;4788;52.438;9.846;2022-12-29T01:17:31;0.50;;;0.50;;
9500;SDS011;4788;52.438;9.846;2022-12-29T01:19:57;0.37;;;0.37;;
9500;SDS011;4788;52.438;9.846;2022-12-29T01:22:23;0.40;;;0.40;;
9500;SDS011;4788;52.438;9.846;2022-12-29T01:24:49;0.40;;;0.40;;
9500;SDS011;4788;52.438;9.846;2022-12-29T01:27:15;0.30;;;0.30;;
9500;SDS011;4788;52.438;9.846;2022-12-29T01:29:41;0.30;;;0.30;;
9500;SDS011;4788;52.438;9.846;2022-12-29T01:32:07;0.40;;;0.40;;
9500;SDS011;4788;52.438;9.846;2022-12-29T01:34:33;0.40;;;0.40;;
9500;SDS011;4788;52.438;9.846;2022-12-29T01:36:59;0.40;;;0.40;;
9500;SDS011;4788;52.438;9.846;2022-12-29T01:39:25;0.40;;;0.40;;
9500;SDS011;4788;52.438;9.846;2022-12-29T01:41:51;0.30;;;0.30;;
9500;SDS011;4788;52.438;9.846;2022-12-29T01:47:01;0.40;;;0.40;;
9500;SDS011;4788;52.438;9.846;2022-12-29T01:49:27;0.30;;;0.30;;
9500;SDS011;4788;52.438;9.846;2022-12-29T01:51:55;0.40;;;0.40;;
9500;SDS011;4788;52.438;9.846;2022-12-29T01:54:30;0.40;;;0.40;;
9500;SDS011;4788;52.438;9.846;2022-12-29T01:56:57;0.37;;;0.37;;
9500;SDS011;4788;52.438;9.846;2022-12-29T01:59:26;0.40;;;0.40;;
9500;SDS011;4788;52.438;9.846;2022-12-29T02:01:53;0.40;;;0.40;;
9500;SDS011;4788;52.438;9.846;2022-12-29T02:04:19;0.30;;;0.30;;
9500;SDS011;4788;52.438;9.846;2022-12-29T02:07:00;0.40;;;0.40;;
9500;SDS011;4788;52.438;9.846;2022-12-29T02:09:27;0.40;;;0.40;;
9500;SDS011;4788;52.438;9.846;2022-12-29T02:11:53;0.40;;;0.40;;
9500;SDS011;4788;52.438;9.846;2022-12-29T02:14:19;0.40;;;0.40;;
9500;SDS011;4788;52.438;9.846;2022-12-29T02:16:56;0.33;;;0.33;;
9500;SDS011;4788;52.438;9.846;2022-12-29T02:22:16;0.40;;;0.40;;
9500;SDS011;4788;52.438;9.846;2022-12-29T02:25:07;0.40;;;0.40;;
9500;SDS011;4788;52.438;9.846;2022-12-29T02:35:50;0.40;;;0.40;;
9500;SDS011;4788;52.438;9.846;2022-12-29T02:38:27;0.40;;;0.40;;
9500;SDS011;4788;52.438;9.846;2022-12-29T02:40:57;0.40;;;0.40;;
9500;SDS011;4788;52.438;9.846;2022-12-29T02:43:34;0.50;;;0.50;;
9500;SDS011;4788;52.438;9.846;2022-12-29T02:46:44;0.40;;;0.40;;
9500;SDS011;4788;52.438;9.846;2022-12-29T02:54:16;0.40;;;0.40;;
9500;SDS011;4788;52.438;9.846;2022-12-29T02:57:01;0.40;;;0.40;;
9500;SDS011;4788;52.438;9.846;2022-12-29T02:59:27;0.40;;;0.40;;
9500;SDS011;4788;52.438;9.846;2022-12-29T03:07:33;0.30;;;0.30;;
9500;SDS011;4788;52.438;9.846;2022-12-29T03:10:10;0.40;;;0.40;;
9500;SDS011;4788;52.438;9.846;2022-12-29T03:15:28;0.50;;;0.50;;
9500;SDS011;4788;52.438;9.846;2022-12-29T03:18:25;0.40;;;0.40;;
9500;SDS011;4788;52.438;9.846;2022-12-29T03:21:01;0.37;;;0.37;;
9500;SDS011;4788;52.438;9.846;2022-12-29T03:23:28;0.40;;;0.40;;
9500;SDS011;4788;52.438;9.846;2022-12-29T03:25:56;0.40;;;0.40;;
9500;SDS011;4788;52.438;9.846;2022-12-29T03:28:30;0.40;;;0.40;;
9500;SDS011;4788;52.438;9.846;2022-12-29T03:30:59;0.40;;;0.40;;
9500;SDS011;4788;52.438;9.846;2022-12-29T03:33:27;0.40;;;0.40;;
9500;SDS011;4788;52.438;9.846;2022-12-29T03:35:55;0.40;;;0.40;;
9500;SDS011;4788;52.438;9.846;2022-12-29T03:38:45;0.40;;;0.40;;
9500;SDS011;4788;52.438;9.846;2022-12-29T03:41:10;0.40;;;0.40;;
9500;SDS011;4788;52.438;9.846;2022-12-29T03:43:37;0.40;;;0.40;;
9500;SDS011;4788;52.438;9.846;2022-12-29T03:46:03;0.30;;;0.30;;
9500;SDS011;4788;52.438;9.846;2022-12-29T03:48:29;0.40;;;0.40;;
9500;SDS011;4788;52.438;9.846;2022-12-29T03:50:55;0.30;;;0.30;;
9500;SDS011;4788;52.438;9.846;2022-12-29T03:53:21;0.40;;;0.40;;
9500;SDS011;4788;52.438;9.846;2022-12-29T03:55:47;0.40;;;0.40;;
9500;SDS011;4788;52.438;9.846;2022-12-29T03:58:14;0.30;;;0.30;;
9500;SDS011;4788;52.438;9.846;2022-12-29T04:00:40;0.40;;;0.40;;
9500;SDS011;4788;52.438;9.846;2022-12-29T04:03:06;0.40;;;0.40;;
9500;SDS011;4788;52.438;9.846;2022-12-29T04:05:32;0.40;;;0.40;;
9500;SDS011;4788;52.438;9.846;2022-12-29T04:07:58;0.40;;;0.40;;
9500;SDS011;4788;52.438;9.846;2022-12-29T04:10:24;0.30;;;0.30;;
9500;SDS011;4788;52.438;9.846;2022-12-29T04:12:49;0.40;;;0.40;;
9500;SDS011;4788;52.438;9.846;2022-12-29T04:15:15;0.40;;;0.40;;
9500;SDS011;4788;52.438;9.846;2022-12-29T04:17:41;0.40;;;0.40;;
9500;SDS011;4788;52.438;9.846;2022-12-29T04:20:07;0.30;;;0.30;;
9500;SDS011;4788;52.438;9.846;2022-12-29T04:22:57;0.30;;;0.30;;
9500;SDS011;4788;52.438;9.846;2022-12-29T04:25:23;0.40;;;0.40;;
9500;SDS011;4788;52.438;9.846;2022-12-29T04:27:49;0.40;;;0.40;;
9500;SDS011;4788;52.438;9.846;2022-12-29T04:30:15;0.40;;;0.40;;
9500;SDS011;4788;52.438;9.846;2022-12-29T04:32:41;0.30;;;0.30;;
9500;SDS011;4788;52.438;9.846;2022-12-29T04:35:07;0.40;;;0.40;;
9500;SDS011;4788;52.438;9.846;2022-12-29T04:37:33;0.40;;;0.40;;
9500;SDS011;4788;52.438;9.846;2022-12-29T04:39:59;0.40;;;0.40;;
9500;SDS011;4788;52.438;9.846;2022-12-29T04:42:25;0.40;;;0.40;;
9500;SDS011;4788;52.438;9.846;2022-12-29T04:44:51;0.30;;;0.30;;
9500;SDS011;4788;52.438;9.846;2022-12-29T04:47:17;0.33;;;0.33;;
9500;SDS011;4788;52.438;9.846;2022-12-29T04:49:43;0.40;;;0.40;;
9500;SDS011;4788;52.438;9.846;2022-12-29T04:52:09;0.40;;;0.40;;
9500;SDS011;4788;52.438;9.846;2022-12-29T04:54:35;0.30;;;0.30;;
9500;SDS011;4788;52.438;9.846;2022-12-29T04:57:01;0.40;;;0.40;;
9500;SDS011;4788;52.438;9.846;2022-12-29T04:59:27;0.40;;;0.40;;
9500;SDS011;4788;52.438;9.846;2022-12-29T05:01:53;0.40;;;0.40;;
9500;SDS011;4788;52.438;9.846;2022-12-29T05:04:19;0.40;;;0.40;;
9500;SDS011;4788;52.438;9.846;2022-12-29T05:06:45;0.40;;;0.40;;
9500;SDS011;4788;52.438;9.846;2022-12-29T05:09:11;0.40;;;0.40;;
9500;SDS011;4788;52.438;9.846;2022-12-29T05:11:37;0.40;;;0.40;;
9500;SDS011;4788;52.438;9.846;2022-12-29T05:14:03;0.30;;;0.30;;
9500;SDS011;4788;52.438;9.846;2022-12-29T05:16:29;0.30;;;0.30;;
9500;SDS011;4788;52.438;9.846;2022-12-29T05:18:55;0.40;;;0.40;;
9500;SDS011;4788;52.438;9.846;2022-12-29T05:21:21;0.40;;;0.40;;
9500;SDS011;4788;52.438;9.846;2022-12-29T05:23:47;0.40;;;0.40;;
9500;SDS011;4788;52.438;9.846;2022-12-29T05:26:13;0.33;;;0.33;;
9500;SDS011;4788;52.438;9.846;2022-12-29T05:28:39;0.30;;;0.30;;
9500;SDS011;4788;52.438;9.846;2022-12-29T05:31:05;0.40;;;0.40;;
9500;SDS011;4788;52.438;9.846;2022-12-29T05:33:31;0.40;;;0.40;;
9500;SDS011;4788;52.438;9.846;2022-12-29T05:35:57;0.40;;;0.40;;
9500;SDS011;4788;52.438;9.846;2022-12-29T05:38:23;0.40;;;0.40;;
9500;SDS011;4788;52.438;9.846;2022-12-29T05:40:48;0.40;;;0.40;;
9500;SDS011;4788;52.438;9.846;2022-12-29T05:43:14;0.40;;;0.40;;
9500;SDS011;4788;52.438;9.846;2022-12-29T05:45:40;0.30;;;0.30;;
9500;SDS011;4788;52.438;9.846;2022-12-29T05:48:06;0.40;;;0.40;;
9500;SDS011;4788;52.438;9.846;2022-12-29T05:50:32;0.30;;;0.30;;
9500;SDS011;4788;52.438;9.846;2022-12-29T05:52:58;0.40;;;0.40;;
9500;SDS011;4788;52.438;9.846;2022-12-29T05:55:24;0.40;;;0.40;;
9500;SDS011;4788;52.438;9.846;2022-12-29T05:57:50;0.40;;;0.40;;
9500;SDS011;4788;52.438;9.846;2022-12-29T06:00:16;0.30;;;0.30;;
9500;SDS011;4788;52.438;9.846;2022-12-29T06:02:42;0.30;;;0.30;;
9500;SDS011;4788;52.438;9.846;2022-12-29T06:05:08;0.40;;;0.40;;
9500;SDS011;4788;52.438;9.846;2022-12-29T06:07:34;0.40;;;0.40;;
9500;SDS011;4788;52.438;9.846;2022-12-29T06:10:00;0.30;;;0.30;;
9500;SDS011;4788;52.438;9.846;2022-12-29T06:12:26;0.40;;;0.40;;
9500;SDS011;4788;52.438;9.846;2022-12-29T06:14:52;0.30;;;0.30;;
9500;SDS011;4788;52.438;9.846;2022-12-29T06:17:18;0.30;;;0.30;;
9500;SDS011;4788;52.438;9.846;2022-12-29T06:19:44;0.40;;;0.40;;
9500;SDS011;4788;52.438;9.846;2022-12-29T06:22:10;0.40;;;0.40;;
9500;SDS011;4788;52.438;9.846;2022-12-29T06:24:37;0.30;;;0.30;;
9500;SDS011;4788;52.438;9.846;2022-12-29T06:27:03;0.30;;;0.30;;
9500;SDS011;4788;52.438;9.846;2022-12-29T06:29:29;0.30;;;0.30;;
9500;SDS011;4788;52.438;9.846;2022-12-29T06:31:55;0.40;;;0.40;;
9500;SDS011;4788;52.438;9.846;2022-12-29T06:34:23;0.40;;;0.40;;
9500;SDS011;4788;52.438;9.846;2022-12-29T06:36:49;0.40;;;0.40;;
9500;SDS011;4788;52.438;9.846;2022-12-29T06:39:15;0.50;;;0.50;;
9500;SDS011;4788;52.438;9.846;2022-12-29T06:41:41;0.30;;;0.30;;
9500;SDS011;4788;52.438;9.846;2022-12-29T06:44:07;0.30;;;0.30;;
9500;SDS011;4788;52.438;9.846;2022-12-29T06:46:33;0.40;;;0.40;;
9500;SDS011;4788;52.438;9.846;2022-12-29T06:48:59;0.40;;;0.40;;
9500;SDS011;4788;52.438;9.846;2022-12-29T06:51:25;0.40;;;0.40;;
9500;SDS011;4788;52.438;9.846;2022-12-29T06:53:51;0.40;;;0.40;;
9500;SDS011;4788;52.438;9.846;2022-12-29T06:56:17;0.30;;;0.30;;
9500;SDS011;4788;52.438;9.846;2022-12-29T06:58:43;0.30;;;0.30;;
9500;SDS011;4788;52.438;9.846;2022-12-29T07:01:08;0.40;;;0.40;;
9500;SDS011;4788;52.438;9.846;2022-12-29T07:03:34;0.40;;;0.40;;
9500;SDS011;4788;52.438;9.846;2022-12-29T07:06:00;0.30;;;0.30;;
9500;SDS011;4788;52.438;9.846;2022-12-29T07:08:26;0.30;;;0.30;;
9500;SDS011;4788;52.438;9.846;2022-12-29T07:10:52;0.40;;;0.40;;
9500;SDS011;4788;52.438;9.846;2022-12-29T07:13:18;0.30;;;0.30;;
9500;SDS011;4788;52.438;9.846;2022-12-29T07:15:44;0.30;;;0.30;;
9500;SDS011;4788;52.438;9.846;2022-12-29T07:18:10;0.30;;;0.30;;
9500;SDS011;4788;52.438;9.846;2022-12-29T07:20:36;0.40;;;0.40;;
9500;SDS011;4788;52.438;9.846;2022-12-29T07:23:02;0.30;;;0.30;;
9500;SDS011;4788;52.438;9.846;2022-12-29T07:25:28;0.40;;;0.40;;
9500;SDS011;4788;52.438;9.846;2022-12-29T07:27:54;0.40;;;0.40;;
9500;SDS011;4788;52.438;9.846;2022-12-29T07:30:20;0.30;;;0.30;;
9500;SDS011;4788;52.438;9.846;2022-12-29T07:32:46;0.40;;;0.40;;
9500;SDS011;4788;52.438;9.846;2022-12-29T07:35:12;0.30;;;0.30;;
9500;SDS011;4788;52.438;9.846;2022-12-29T07:37:38;0.30;;;0.30;;
9500;SDS011;4788;52.438;9.846;2022-12-29T07:40:04;0.40;;;0.40;;
9500;SDS011;4788;52.438;9.846;2022-12-29T07:42:30;0.40;;;0.40;;
9500;SDS011;4788;52.438;9.846;2022-12-29T07:44:56;0.30;;;0.30;;
9500;SDS011;4788;52.438;9.846;2022-12-29T07:47:22;0.40;;;0.40;;
9500;SDS011;4788;52.438;9.846;2022-12-29T07:49:48;0.33;;;0.33;;
9500;SDS011;4788;52.438;9.846;2022-12-29T07:52:14;0.30;;;0.30;;
9500;SDS011;4788;52.438;9.846;2022-12-29T07:54:40;0.30;;;0.30;;
9500;SDS011;4788;52.438;9.846;2022-12-29T07:57:06;0.40;;;0.40;;
9500;SDS011;4788;52.438;9.846;2022-12-29T07:59:32;0.30;;;0.30;;
9500;SDS011;4788;52.438;9.846;2022-12-29T08:01:58;0.30;;;0.30;;
9500;SDS011;4788;52.438;9.846;2022-12-29T08:04:24;0.40;;;0.40;;
9500;SDS011;4788;52.438;9.846;2022-12-29T08:06:50;0.40;;;0.40;;
9500;SDS011;4788;52.438;9.846;2022-12-29T08:09:16;0.40;;;0.40;;
9500;SDS011;4788;52.438;9.846;2022-12-29T08:11:42;0.30;;;0.30;;
9500;SDS011;4788;52.438;9.846;2022-12-29T08:14:08;0.30;;;0.30;;
9500;SDS011;4788;52.438;9.846;2022-12-29T08:16:34;0.30;;;0.30;;
9500;SDS011;4788;52.438;9.846;2022-12-29T08:19:00;0.40;;;0.40;;
9500;SDS011;4788;52.438;9.846;2022-12-29T08:21:27;0.40;;;0.40;;
9500;SDS011;4788;52.438;9.846;2022-12-29T08:23:53;0.33;;;0.33;;
9500;SDS011;4788;52.438;9.846;2022-12-29T08:26:19;0.40;;;0.40;;
9500;SDS011;4788;52.438;9.846;2022-12-29T08:28:45;0.30;;;0.30;;
9500;SDS011;4788;52.438;9.846;2022-12-29T08:31:11;0.30;;;0.30;;
9500;SDS011;4788;52.438;9.846;2022-12-29T08:33:37;0.40;;;0.40;;
9500;SDS011;4788;52.438;9.846;2022-12-29T08:36:04;0.30;;;0.30;;
9500;SDS011;4788;52.438;9.846;2022-12-29T08:38:31;0.40;;;0.40;;
9500;SDS011;4788;52.438;9.846;2022-12-29T08:40:57;0.30;;;0.30;;
9500;SDS011;4788;52.438;9.846;2022-12-29T08:43:23;0.40;;;0.40;;
9500;SDS011;4788;52.438;9.846;2022-12-29T08:45:49;0.30;;;0.30;;
9500;SDS011;4788;52.438;9.846;2022-12-29T08:48:15;0.30;;;0.30;;
9500;SDS011;4788;52.438;9.846;2022-12-29T08:50:44;0.30;;;0.30;;
9500;SDS011;4788;52.438;9.846;2022-12-29T08:53:10;0.40;;;0.40;;
9500;SDS011;4788;52.438;9.846;2022-12-29T08:55:36;0.30;;;0.30;;
9500;SDS011;4788;52.438;9.846;2022-12-29T08:58:02;0.30;;;0.30;;
9500;SDS011;4788;52.438;9.846;2022-12-29T09:00:28;0.40;;;0.40;;
9500;SDS011;4788;52.438;9.846;2022-12-29T09:02:54;0.30;;;0.30;;
9500;SDS011;4788;52.438;9.846;2022-12-29T09:05:20;0.40;;;0.40;;
9500;SDS011;4788;52.438;9.846;2022-12-29T09:07:46;0.30;;;0.30;;
9500;SDS011;4788;52.438;9.846;2022-12-29T09:10:12;0.30;;;0.30;;
9500;SDS011;4788;52.438;9.846;2022-12-29T09:12:38;0.30;;;0.30;;
9500;SDS011;4788;52.438;9.846;2022-12-29T09:15:04;0.40;;;0.40;;
9500;SDS011;4788;52.438;9.846;2022-12-29T09:17:30;0.30;;;0.30;;
9500;SDS011;4788;52.438;9.846;2022-12-29T09:20:09;0.30;;;0.30;;
9500;SDS011;4788;52.438;9.846;2022-12-29T09:22:35;0.30;;;0.30;;
9500;SDS011;4788;52.438;9.846;2022-12-29T09:25:01;0.40;;;0.40;;
9500;SDS011;4788;52.438;9.846;2022-12-29T09:27:27;0.30;;;0.30;;
9500;SDS011;4788;52.438;9.846;2022-12-29T09:29:54;0.30;;;0.30;;
9500;SDS011;4788;52.438;9.846;2022-12-29T09:32:20;0.40;;;0.40;;
9500;SDS011;4788;52.438;9.846;2022-12-29T09:34:46;0.30;;;0.30;;
9500;SDS011;4788;52.438;9.846;2022-12-29T09:37:12;0.30;;;0.30;;
9500;SDS011;4788;52.438;9.846;2022-12-29T09:39:38;0.30;;;0.30;;
9500;SDS011;4788;52.438;9.846;2022-12-29T09:42:08;0.30;;;0.30;;
9500;SDS011;4788;52.438;9.846;2022-12-29T09:44:56;0.30;;;0.30;;
9500;SDS011;4788;52.438;9.846;2022-12-29T09:47:27;0.37;;;0.37;;
9500;SDS011;4788;52.438;9.846;2022-12-29T09:52:23;0.40;;;0.40;;
9500;SDS011;4788;52.438;9.846;2022-12-29T09:57:24;0.30;;;0.30;;
9500;SDS011;4788;52.438;9.846;2022-12-29T09:59:52;0.30;;;0.30;;
9500;SDS011;4788;52.438;9.846;2022-12-29T10:02:23;0.30;;;0.30;;
9500;SDS011;4788;52.438;9.846;2022-12-29T10:04:53;0.30;;;0.30;;
9500;SDS011;4788;52.438;9.846;2022-12-29T10:07:25;0.30;;;0.30;;
9500;SDS011;4788;52.438;9.846;2022-12-29T10:09:56;0.40;;;0.40;;
9500;SDS011;4788;52.438;9.846;2022-12-29T10:12:31;0.40;;;0.40;;
9500;SDS011;4788;52.438;9.846;2022-12-29T10:23:03;0.30;;;0.30;;
9500;SDS011;4788;52.438;9.846;2022-12-29T10:25:32;0.40;;;0.40;;
9500;SDS011;4788;52.438;9.846;2022-12-29T10:28:01;0.30;;;0.30;;
9500;SDS011;4788;52.438;9.846;2022-12-29T10:30:29;0.30;;;0.30;;
9500;SDS011;4788;52.438;9.846;2022-12-29T10:32:56;0.30;;;0.30;;
9500;SDS011;4788;52.438;9.846;2022-12-29T10:35:24;0.30;;;0.30;;
9500;SDS011;4788;52.438;9.846;2022-12-29T10:38:12;0.40;;;0.40;;
9500;SDS011;4788;52.438;9.846;2022-12-29T10:43:24;0.30;;;0.30;;
9500;SDS011;4788;52.438;9.846;2022-12-29T10:45:51;0.33;;;0.33;;
9500;SDS011;4788;52.438;9.846;2022-12-29T10:48:19;0.30;;;0.30;;
9500;SDS011;4788;52.438;9.846;2022-12-29T10:50:47;0.30;;;0.30;;
9500;SDS011;4788;52.438;9.846;2022-12-29T10:53:19;0.40;;;0.40;;
9500;SDS011;4788;52.438;9.846;2022-12-29T10:55:46;0.40;;;0.40;;
9500;SDS011;4788;52.438;9.846;2022-12-29T10:58:13;0.30;;;0.30;;
9500;SDS011;4788;52.438;9.846;2022-12-29T11:00:40;0.30;;;0.30;;
9500;SDS011;4788;52.438;9.846;2022-12-29T11:08:18;0.30;;;0.30;;
9500;SDS011;4788;52.438;9.846;2022-12-29T11:10:45;0.30;;;0.30;;
9500;SDS011;4788;52.438;9.846;2022-12-29T11:13:16;0.30;;;0.30;;
9500;SDS011;4788;52.438;9.846;2022-12-29T11:15:44;0.30;;;0.30;;
9500;SDS011;4788;52.438;9.846;2022-12-29T11:18:21;0.30;;;0.30;;
9500;SDS011;4788;52.438;9.846;2022-12-29T11:20:48;0.30;;;0.30;;
9500;SDS011;4788;52.438;9.846;2022-12-29T11:23:25;0.30;;;0.30;;
9500;SDS011;4788;52.438;9.846;2022-12-29T11:28:36;0.30;;;0.30;;
9500;SDS011;4788;52.438;9.846;2022-12-29T11:31:03;0.30;;;0.30;;
9500;SDS011;4788;52.438;9.846;2022-12-29T11:33:30;0.30;;;0.30;;
9500;SDS011;4788;52.438;9.846;2022-12-29T11:35:57;0.30;;;0.30;;
9500;SDS011;4788;52.438;9.846;2022-12-29T11:38:33;0.30;;;0.30;;
9500;SDS011;4788;52.438;9.846;2022-12-29T11:41:00;0.27;;;0.27;;
9500;SDS011;4788;52.438;9.846;2022-12-29T11:43:31;0.30;;;0.30;;
9500;SDS011;4788;52.438;9.846;2022-12-29T11:46:00;0.20;;;0.20;;
9500;SDS011;4788;52.438;9.846;2022-12-29T11:48:31;0.30;;;0.30;;
9500;SDS011;4788;52.438;9.846;2022-12-29T11:50:59;0.30;;;0.30;;
9500;SDS011;4788;52.438;9.846;2022-12-29T11:53:32;0.30;;;0.30;;
9500;SDS011;4788;52.438;9.846;2022-12-29T11:56:03;0.40;;;0.40;;
9500;SDS011;4788;52.438;9.846;2022-12-29T11:58:32;0.40;;;0.40;;
9500;SDS011;4788;52.438;9.846;2022-12-29T12:01:02;0.30;;;0.30;;
9500;SDS011;4788;52.438;9.846;2022-12-29T12:03:28;0.20;;;0.20;;
9500;SDS011;4788;52.438;9.846;2022-12-29T12:05:57;0.20;;;0.20;;
9500;SDS011;4788;52.438;9.846;2022-12-29T12:10:53;0.30;;;0.30;;
9500;SDS011;4788;52.438;9.846;2022-12-29T12:16:27;0.30;;;0.30;;
9500;SDS011;4788;52.438;9.846;2022-12-29T12:18:57;0.30;;;0.30;;
9500;SDS011;4788;52.438;9.846;2022-12-29T12:21:30;0.30;;;0.30;;
9500;SDS011;4788;52.438;9.846;2022-12-29T12:24:08;0.30;;;0.30;;
9500;SDS011;4788;52.438;9.846;2022-12-29T12:29:14;0.30;;;0.30;;
9500;SDS011;4788;52.438;9.846;2022-12-29T12:31:49;0.30;;;0.30;;
9500;SDS011;4788;52.438;9.846;2022-12-29T12:34:19;0.30;;;0.30;;
9500;SDS011;4788;52.438;9.846;2022-12-29T12:39:42;0.20;;;0.20;;
9500;SDS011;4788;52.438;9.846;2022-12-29T12:42:20;0.40;;;0.40;;
9500;SDS011;4788;52.438;9.846;2022-12-29T12:44:54;0.40;;;0.40;;
9500;SDS011;4788;52.438;9.846;2022-12-29T12:50:10;0.37;;;0.37;;
9500;SDS011;4788;52.438;9.846;2022-12-29T12:58:04;0.40;;;0.40;;
9500;SDS011;4788;52.438;9.846;2022-12-29T13:00:34;0.33;;;0.33;;
9500;SDS011;4788;52.438;9.846;2022-12-29T13:03:06;0.30;;;0.30;;
9500;SDS011;4788;52.438;9.846;2022-12-29T13:05:42;0.30;;;0.30;;
9500;SDS011;4788;52.438;9.846;2022-12-29T13:13:48;0.30;;;0.30;;
9500;SDS011;4788;52.438;9.846;2022-12-29T13:16:30;0.30;;;0.30;;
9500;SDS011;4788;52.438;9.846;2022-12-29T13:21:52;0.33;;;0.33;;
9500;SDS011;4788;52.438;9.846;2022-12-29T13:29:32;0.30;;;0.30;;
9500;SDS011;4788;52.438;9.846;2022-12-29T13:37:24;0.20;;;0.20;;
9500;SDS011;4788;52.438;9.846;2022-12-29T13:39:51;0.20;;;0.20;;
9500;SDS011;4788;52.438;9.846;2022-12-29T13:42:18;0.30;;;0.30;;
9500;SDS011;4788;52.438;9.846;2022-12-29T13:44:46;0.30;;;0.30;;
9500;SDS011;4788;52.438;9.846;2022-12-29T13:47:22;0.30;;;0.30;;
9500;SDS011;4788;52.438;9.846;2022-12-29T13:49:52;0.30;;;0.30;;
9500;SDS011;4788;52.438;9.846;2022-12-29T13:59:59;0.30;;;0.30;;
9500;SDS011;4788;52.438;9.846;2022-12-29T14:05:03;0.40;;;0.40;;
9500;SDS011;4788;52.438;9.846;2022-12-29T14:07:29;0.20;;;0.20;;
9500;SDS011;4788;52.438;9.846;2022-12-29T14:10:02;0.40;;;0.40;;
9500;SDS011;4788;52.438;9.846;2022-12-29T14:12:31;0.30;;;0.30;;
9500;SDS011;4788;52.438;9.846;2022-12-29T14:15:31;0.30;;;0.30;;
9500;SDS011;4788;52.438;9.846;2022-12-29T14:20:53;0.20;;;0.20;;
9500;SDS011;4788;52.438;9.846;2022-12-29T14:23:34;0.30;;;0.30;;
9500;SDS011;4788;52.438;9.846;2022-12-29T14:28:34;0.30;;;0.30;;
9500;SDS011;4788;52.438;9.846;2022-12-29T14:31:43;0.30;;;0.30;;
9500;SDS011;4788;52.438;9.846;2022-12-29T14:36:35;0.30;;;0.30;;
9500;SDS011;4788;52.438;9.846;2022-12-29T14:39:04;0.30;;;0.30;;
9500;SDS011;4788;52.438;9.846;2022-12-29T14:41:59;0.30;;;0.30;;
9500;SDS011;4788;52.438;9.846;2022-12-29T14:44:25;0.30;;;0.30;;
9500;SDS011;4788;52.438;9.846;2022-12-29T14:46:55;0.30;;;0.30;;
9500;SDS011;4788;52.438;9.846;2022-12-29T14:49:27;0.30;;;0.30;;
9500;SDS011;4788;52.438;9.846;2022-12-29T14:51:54;0.30;;;0.30;;
9500;SDS011;4788;52.438;9.846;2022-12-29T14:57:05;0.30;;;0.30;;
9500;SDS011;4788;52.438;9.846;2022-12-29T14:59:32;1.57;;;1.10;;
9500;SDS011;4788;52.438;9.846;2022-12-29T15:01:58;18.73;;;4.63;;
9500;SDS011;4788;52.438;9.846;2022-12-29T15:04:32;35.57;;;24.50;;
9500;SDS011;4788;52.438;9.846;2022-12-29T15:06:59;62.90;;;25.40;;
9500;SDS011;4788;52.438;9.846;2022-12-29T15:09:38;50.13;;;32.23;;
9500;SDS011;4788;52.438;9.846;2022-12-29T15:12:18;154.03;;;77.90;;
9500;SDS011;4788;52.438;9.846;2022-12-29T15:14:50;136.93;;;75.17;;
9500;SDS011;4788;52.438;9.846;2022-12-29T15:19:48;492.20;;;165.13;;
9500;SDS011;4788;52.438;9.846;2022-12-29T15:22:14;464.40;;;146.97;;
9500;SDS011;4788;52.438;9.846;2022-12-29T15:24:41;529.57;;;168.97;;
9500;SDS011;4788;52.438;9.846;2022-12-29T15:27:10;497.70;;;151.67;;
9500;SDS011;4788;52.438;9.846;2022-12-29T15:29:40;0.33;;;0.33;;
9500;SDS011;4788;52.438;9.846;2022-12-29T15:32:15;248.10;;;86.60;;
9500;SDS011;4788;52.438;9.846;2022-12-29T15:34:46;353.13;;;123.77;;
9500;SDS011;4788;52.438;9.846;2022-12-29T15:37:22;561.63;;;201.10;;
9500;SDS011;4788;52.438;9.846;2022-12-29T15:39:49;482.30;;;185.93;;
9500;SDS011;4788;52.438;9.846;2022-12-29T15:42:39;9.80;;;4.93;;
9500;SDS011;4788;52.438;9.846;2022-12-29T15:45:11;538.30;;;202.47;;
9500;SDS011;4788;52.438;9.846;2022-12-29T15:47:38;398.20;;;179.20;;
9500;SDS011;4788;52.438;9.846;2022-12-29T15:50:06;402.50;;;154.73;;
9500;SDS011;4788;52.438;9.846;2022-12-29T15:52:34;545.70;;;201.20;;
9500;SDS011;4788;52.438;9.846;2022-12-29T15:55:00;564.83;;;212.93;;
9500;SDS011;4788;52.438;9.846;2022-12-29T15:59:53;0.40;;;0.40;;
9500;SDS011;4788;52.438;9.846;2022-12-29T16:02:20;0.30;;;0.30;;
9500;SDS011;4788;52.438;9.846;2022-12-29T16:04:47;0.40;;;0.40;;
9500;SDS011;4788;52.438;9.846;2022-12-29T16:07:22;0.40;;;0.40;;
9500;SDS011;4788;52.438;9.846;2022-12-29T16:09:53;0.30;;;0.30;;
9500;SDS011;4788;52.438;9.846;2022-12-29T16:12:28;33.30;;;12.93;;
9500;SDS011;4788;52.438;9.846;2022-12-29T16:14:56;78.00;;;30.33;;
9500;SDS011;4788;52.438;9.846;2022-12-29T16:17:26;405.17;;;164.43;;
9500;SDS011;4788;52.438;9.846;2022-12-29T16:19:57;0.40;;;0.40;;
9500;SDS011;4788;52.438;9.846;2022-12-29T16:22:29;35.87;;;10.37;;
9500;SDS011;4788;52.438;9.846;2022-12-29T16:24:57;0.30;;;0.30;;
9500;SDS011;4788;52.438;9.846;2022-12-29T16:29:53;0.40;;;0.40;;
9500;SDS011;4788;52.438;9.846;2022-12-29T16:32:27;0.40;;;0.40;;
9500;SDS011;4788;52.438;9.846;2022-12-29T16:35:27;0.30;;;0.30;;
9500;SDS011;4788;52.438;9.846;2022-12-29T16:37:47;0.30;;;0.30;;
9500;SDS011;4788;52.438;9.846;2022-12-29T16:47:47;0.30;;;0.30;;
9500;SDS011;4788;52.438;9.846;2022-12-29T16:50:16;0.30;;;0.30;;
9500;SDS011;4788;52.438;9.846;2022-12-29T16:52:46;0.20;;;0.20;;
9500;SDS011;4788;52.438;9.846;2022-12-29T16:55:15;0.30;;;0.30;;
9500;SDS011;4788;52.438;9.846;2022-12-29T16:57:42;0.40;;;0.40;;
9500;SDS011;4788;52.438;9.846;2022-12-29T17:00:17;0.40;;;0.40;;
9500;SDS011;4788;52.438;9.846;2022-12-29T17:02:44;0.30;;;0.30;;
9500;SDS011;4788;52.438;9.846;2022-12-29T17:05:13;0.30;;;0.30;;
9500;SDS011;4788;52.438;9.846;2022-12-29T17:07:40;0.30;;;0.30;;
9500;SDS011;4788;52.438;9.846;2022-12-29T17:10:06;0.30;;;0.30;;
9500;SDS011;4788;52.438;9.846;2022-12-29T17:12:32;0.40;;;0.40;;
9500;SDS011;4788;52.438;9.846;2022-12-29T17:15:00;0.30;;;0.30;;
9500;SDS011;4788;52.438;9.846;2022-12-29T17:17:31;0.30;;;0.30;;
9500;SDS011;4788;52.438;9.846;2022-12-29T17:19:59;0.30;;;0.30;;
9500;SDS011;4788;52.438;9.846;2022-12-29T17:22:28;0.30;;;0.30;;
9500;SDS011;4788;52.438;9.846;2022-12-29T17:24:56;0.50;;;0.50;;
9500;SDS011;4788;52.438;9.846;2022-12-29T17:27:23;0.30;;;0.30;;
9500;SDS011;4788;52.438;9.846;2022-12-29T17:29:49;0.30;;;0.30;;